sensor_id;sensor_type;location;lat;lon;timestamp;temperature;humidity
74359;DHT22;62792;46.236;6.040;2024-02-21T00:04:28;22.70;42.40
74359;DHT22;62792;46.236;6.040;2024-02-21T00:09:31;22.80;42.30
74359;DHT22;62792;46.236;6.040;2024-02-21T00:14:35;22.70;42.70
74359;DHT22;62792;46.236;6.040;2024-02-21T00:19:38;22.70;42.40
74359;DHT22;62792;46.236;6.040;2024-02-21T00:24:41;22.80;42.40
74359;DHT22;62792;46.236;6.040;2024-02-21T00:29:45;22.80;42.20
74359;DHT22;62792;46.236;6.040;2024-02-21T00:34:48;22.70;42.20
74359;DHT22;62792;46.236;6.040;2024-02-21T00:39:53;22.60;42.00
74359;DHT22;62792;46.236;6.040;2024-02-21T00:44:57;22.70;42.30
74359;DHT22;62792;46.236;6.040;2024-02-21T00:50:00;22.70;42.40
74359;DHT22;62792;46.236;6.040;2024-02-21T00:55:06;22.70;42.20
74359;DHT22;62792;46.236;6.040;2024-02-21T01:00:12;22.60;42.00
74359;DHT22;62792;46.236;6.040;2024-02-21T01:05:16;22.80;42.10
74359;DHT22;62792;46.236;6.040;2024-02-21T01:10:19;22.70;42.20
74359;DHT22;62792;46.236;6.040;2024-02-21T01:15:24;22.70;42.20
74359;DHT22;62792;46.236;6.040;2024-02-21T01:20:27;22.70;42.20
74359;DHT22;62792;46.236;6.040;2024-02-21T01:25:30;22.60;42.10
74359;DHT22;62792;46.236;6.040;2024-02-21T01:30:34;22.60;42.30
74359;DHT22;62792;46.236;6.040;2024-02-21T01:35:37;22.70;42.30
74359;DHT22;62792;46.236;6.040;2024-02-21T01:40:40;22.60;42.30
74359;DHT22;62792;46.236;6.040;2024-02-21T01:45:45;22.60;42.10
74359;DHT22;62792;46.236;6.040;2024-02-21T01:50:51;22.60;42.10
74359;DHT22;62792;46.236;6.040;2024-02-21T01:55:54;22.60;42.00
74359;DHT22;62792;46.236;6.040;2024-02-21T02:00:58;22.70;41.80
74359;DHT22;62792;46.236;6.040;2024-02-21T02:06:02;22.70;41.80
74359;DHT22;62792;46.236;6.040;2024-02-21T02:11:06;22.60;42.00
74359;DHT22;62792;46.236;6.040;2024-02-21T02:16:11;22.60;42.20
74359;DHT22;62792;46.236;6.040;2024-02-21T02:21:15;22.60;41.90
74359;DHT22;62792;46.236;6.040;2024-02-21T02:26:28;22.50;42.00
74359;DHT22;62792;46.236;6.040;2024-02-21T02:31:30;22.60;41.90
74359;DHT22;62792;46.236;6.040;2024-02-21T02:36:34;22.60;41.90
74359;DHT22;62792;46.236;6.040;2024-02-21T02:41:38;22.60;41.80
74359;DHT22;62792;46.236;6.040;2024-02-21T02:46:41;22.60;42.00
74359;DHT22;62792;46.236;6.040;2024-02-21T02:51:44;22.50;41.80
74359;DHT22;62792;46.236;6.040;2024-02-21T02:56:48;22.50;42.00
74359;DHT22;62792;46.236;6.040;2024-02-21T03:01:53;22.50;42.00
74359;DHT22;62792;46.236;6.040;2024-02-21T03:06:56;22.50;42.00
74359;DHT22;62792;46.236;6.040;2024-02-21T03:12:00;22.50;41.70
74359;DHT22;62792;46.236;6.040;2024-02-21T03:17:05;22.60;41.60
74359;DHT22;62792;46.236;6.040;2024-02-21T03:22:08;22.60;41.70
74359;DHT22;62792;46.236;6.040;2024-02-21T03:27:12;22.60;41.80
74359;DHT22;62792;46.236;6.040;2024-02-21T03:32:15;22.50;41.80
74359;DHT22;62792;46.236;6.040;2024-02-21T03:37:18;22.60;41.80
74359;DHT22;62792;46.236;6.040;2024-02-21T03:42:22;22.50;41.50
74359;DHT22;62792;46.236;6.040;2024-02-21T03:47:25;22.50;41.70
74359;DHT22;62792;46.236;6.040;2024-02-21T03:52:28;22.50;41.70
74359;DHT22;62792;46.236;6.040;2024-02-21T03:57:32;22.50;41.50
74359;DHT22;62792;46.236;6.040;2024-02-21T04:02:35;22.50;41.60
74359;DHT22;62792;46.236;6.040;2024-02-21T04:07:38;22.50;41.60
74359;DHT22;62792;46.236;6.040;2024-02-21T04:12:43;22.50;41.40
74359;DHT22;62792;46.236;6.040;2024-02-21T04:17:46;22.40;41.50
74359;DHT22;62792;46.236;6.040;2024-02-21T04:22:49;22.50;41.60
74359;DHT22;62792;46.236;6.040;2024-02-21T04:27:53;22.50;41.70
74359;DHT22;62792;46.236;6.040;2024-02-21T04:32:56;22.40;41.60
74359;DHT22;62792;46.236;6.040;2024-02-21T04:37:59;22.40;41.50
74359;DHT22;62792;46.236;6.040;2024-02-21T04:43:04;22.40;41.70
74359;DHT22;62792;46.236;6.040;2024-02-21T04:48:06;22.50;41.60
74359;DHT22;62792;46.236;6.040;2024-02-21T04:53:09;22.40;41.30
74359;DHT22;62792;46.236;6.040;2024-02-21T04:58:14;22.50;41.40
74359;DHT22;62792;46.236;6.040;2024-02-21T05:03:17;22.40;41.50
74359;DHT22;62792;46.236;6.040;2024-02-21T05:08:20;22.40;41.40
74359;DHT22;62792;46.236;6.040;2024-02-21T05:13:24;22.40;41.40
74359;DHT22;62792;46.236;6.040;2024-02-21T05:18:27;22.40;41.50
74359;DHT22;62792;46.236;6.040;2024-02-21T05:23:30;22.40;41.30
74359;DHT22;62792;46.236;6.040;2024-02-21T05:28:35;22.40;41.40
74359;DHT22;62792;46.236;6.040;2024-02-21T05:33:38;22.40;41.30
74359;DHT22;62792;46.236;6.040;2024-02-21T05:38:41;22.50;41.20
74359;DHT22;62792;46.236;6.040;2024-02-21T05:43:45;22.60;41.30
74359;DHT22;62792;46.236;6.040;2024-02-21T05:48:48;22.60;41.10
74359;DHT22;62792;46.236;6.040;2024-02-21T05:53:51;22.80;41.10
74359;DHT22;62792;46.236;6.040;2024-02-21T05:58:55;22.90;41.00
74359;DHT22;62792;46.236;6.040;2024-02-21T06:03:58;23.00;40.90
74359;DHT22;62792;46.236;6.040;2024-02-21T06:09:01;23.00;41.20
74359;DHT22;62792;46.236;6.040;2024-02-21T06:14:06;23.00;40.90
74359;DHT22;62792;46.236;6.040;2024-02-21T06:19:09;23.00;40.90
74359;DHT22;62792;46.236;6.040;2024-02-21T06:24:12;23.00;41.00
74359;DHT22;62792;46.236;6.040;2024-02-21T06:29:16;22.90;41.00
74359;DHT22;62792;46.236;6.040;2024-02-21T06:34:19;22.90;41.10
74359;DHT22;62792;46.236;6.040;2024-02-21T06:39:23;22.90;41.10
74359;DHT22;62792;46.236;6.040;2024-02-21T06:44:27;22.90;41.30
74359;DHT22;62792;46.236;6.040;2024-02-21T06:49:31;23.00;41.00
74359;DHT22;62792;46.236;6.040;2024-02-21T06:54:34;23.10;40.90
74359;DHT22;62792;46.236;6.040;2024-02-21T06:59:38;23.10;41.00
74359;DHT22;62792;46.236;6.040;2024-02-21T07:04:41;23.10;41.00
74359;DHT22;62792;46.236;6.040;2024-02-21T07:09:45;23.10;40.80
74359;DHT22;62792;46.236;6.040;2024-02-21T07:14:51;23.10;40.80
74359;DHT22;62792;46.236;6.040;2024-02-21T07:19:54;23.20;41.00
74359;DHT22;62792;46.236;6.040;2024-02-21T07:24:58;23.10;40.90
74359;DHT22;62792;46.236;6.040;2024-02-21T07:30:07;23.10;40.80
74359;DHT22;62792;46.236;6.040;2024-02-21T07:35:14;23.20;41.00
74359;DHT22;62792;46.236;6.040;2024-02-21T07:40:17;23.10;40.70
74359;DHT22;62792;46.236;6.040;2024-02-21T07:45:21;23.20;40.70
74359;DHT22;62792;46.236;6.040;2024-02-21T07:50:25;23.20;40.70
74359;DHT22;62792;46.236;6.040;2024-02-21T07:55:28;23.20;40.80
74359;DHT22;62792;46.236;6.040;2024-02-21T08:00:33;23.20;40.80
74359;DHT22;62792;46.236;6.040;2024-02-21T08:05:36;23.20;40.50
74359;DHT22;62792;46.236;6.040;2024-02-21T08:10:39;23.20;40.90
74359;DHT22;62792;46.236;6.040;2024-02-21T08:15:43;23.20;40.90
74359;DHT22;62792;46.236;6.040;2024-02-21T08:20:46;23.30;40.70
74359;DHT22;62792;46.236;6.040;2024-02-21T08:25:49;23.30;40.70
74359;DHT22;62792;46.236;6.040;2024-02-21T08:30:54;23.20;41.60
74359;DHT22;62792;46.236;6.040;2024-02-21T08:35:56;23.40;42.50
74359;DHT22;62792;46.236;6.040;2024-02-21T08:40:59;23.30;43.00
74359;DHT22;62792;46.236;6.040;2024-02-21T08:46:05;23.30;42.60
74359;DHT22;62792;46.236;6.040;2024-02-21T08:51:07;23.10;42.60
74359;DHT22;62792;46.236;6.040;2024-02-21T08:56:11;23.20;42.60
74359;DHT22;62792;46.236;6.040;2024-02-21T09:01:15;23.10;42.70
74359;DHT22;62792;46.236;6.040;2024-02-21T09:06:18;23.40;43.00
74359;DHT22;62792;46.236;6.040;2024-02-21T09:11:22;23.50;43.60
74359;DHT22;62792;46.236;6.040;2024-02-21T09:16:26;23.70;42.60
74359;DHT22;62792;46.236;6.040;2024-02-21T09:21:29;23.80;42.90
74359;DHT22;62792;46.236;6.040;2024-02-21T09:26:32;23.70;43.30
74359;DHT22;62792;46.236;6.040;2024-02-21T09:31:37;23.70;42.30
74359;DHT22;62792;46.236;6.040;2024-02-21T09:36:41;23.70;42.60
74359;DHT22;62792;46.236;6.040;2024-02-21T09:41:45;23.80;42.10
74359;DHT22;62792;46.236;6.040;2024-02-21T09:46:52;23.90;42.10
74359;DHT22;62792;46.236;6.040;2024-02-21T09:51:59;23.90;42.20
74359;DHT22;62792;46.236;6.040;2024-02-21T09:57:07;24.00;42.70
74359;DHT22;62792;46.236;6.040;2024-02-21T10:02:12;24.00;42.30
74359;DHT22;62792;46.236;6.040;2024-02-21T10:07:15;23.90;42.30
74359;DHT22;62792;46.236;6.040;2024-02-21T10:12:18;24.00;43.10
74359;DHT22;62792;46.236;6.040;2024-02-21T10:17:22;24.10;42.50
74359;DHT22;62792;46.236;6.040;2024-02-21T10:22:25;24.00;42.70
74359;DHT22;62792;46.236;6.040;2024-02-21T10:27:29;24.00;42.40
74359;DHT22;62792;46.236;6.040;2024-02-21T10:32:34;24.00;42.00
74359;DHT22;62792;46.236;6.040;2024-02-21T10:37:37;23.90;42.20
74359;DHT22;62792;46.236;6.040;2024-02-21T10:42:40;24.00;42.30
74359;DHT22;62792;46.236;6.040;2024-02-21T10:47:46;24.10;42.30
74359;DHT22;62792;46.236;6.040;2024-02-21T10:52:55;24.10;42.70
74359;DHT22;62792;46.236;6.040;2024-02-21T10:58:04;24.10;42.50
74359;DHT22;62792;46.236;6.040;2024-02-21T11:03:08;24.20;42.00
74359;DHT22;62792;46.236;6.040;2024-02-21T11:08:12;24.10;42.40
74359;DHT22;62792;46.236;6.040;2024-02-21T11:13:15;24.10;42.30
74359;DHT22;62792;46.236;6.040;2024-02-21T11:18:26;23.90;42.10
74359;DHT22;62792;46.236;6.040;2024-02-21T11:23:30;24.00;41.90
74359;DHT22;62792;46.236;6.040;2024-02-21T11:28:33;24.00;41.80
74359;DHT22;62792;46.236;6.040;2024-02-21T11:33:40;23.90;41.90
74359;DHT22;62792;46.236;6.040;2024-02-21T11:38:43;23.80;41.60
74359;DHT22;62792;46.236;6.040;2024-02-21T11:43:48;23.90;41.40
74359;DHT22;62792;46.236;6.040;2024-02-21T11:48:52;23.90;41.60
74359;DHT22;62792;46.236;6.040;2024-02-21T11:53:55;23.90;41.60
74359;DHT22;62792;46.236;6.040;2024-02-21T11:59:03;23.90;41.30
74359;DHT22;62792;46.236;6.040;2024-02-21T12:04:09;23.90;41.40
74359;DHT22;62792;46.236;6.040;2024-02-21T12:09:13;23.90;41.50
74359;DHT22;62792;46.236;6.040;2024-02-21T12:14:17;23.80;41.20
74359;DHT22;62792;46.236;6.040;2024-02-21T12:19:21;23.70;42.10
74359;DHT22;62792;46.236;6.040;2024-02-21T12:24:25;23.90;42.10
74359;DHT22;62792;46.236;6.040;2024-02-21T12:29:28;23.90;41.20
74359;DHT22;62792;46.236;6.040;2024-02-21T12:34:33;23.80;41.00
74359;DHT22;62792;46.236;6.040;2024-02-21T12:39:53;23.80;40.80
74359;DHT22;62792;46.236;6.040;2024-02-21T12:44:56;23.80;41.20
74359;DHT22;62792;46.236;6.040;2024-02-21T12:50:01;24.10;41.60
74359;DHT22;62792;46.236;6.040;2024-02-21T12:55:05;24.00;41.70
74359;DHT22;62792;46.236;6.040;2024-02-21T13:00:10;24.10;41.90
74359;DHT22;62792;46.236;6.040;2024-02-21T13:05:15;24.20;41.80
74359;DHT22;62792;46.236;6.040;2024-02-21T13:10:18;24.10;42.10
74359;DHT22;62792;46.236;6.040;2024-02-21T13:15:21;24.10;42.10
74359;DHT22;62792;46.236;6.040;2024-02-21T13:20:26;24.20;41.90
74359;DHT22;62792;46.236;6.040;2024-02-21T13:25:30;24.10;42.30
74359;DHT22;62792;46.236;6.040;2024-02-21T13:30:33;24.20;42.20
74359;DHT22;62792;46.236;6.040;2024-02-21T13:35:37;24.20;41.90
74359;DHT22;62792;46.236;6.040;2024-02-21T13:40:40;24.10;41.90
74359;DHT22;62792;46.236;6.040;2024-02-21T13:45:46;24.20;42.00
74359;DHT22;62792;46.236;6.040;2024-02-21T13:51:00;24.30;42.10
74359;DHT22;62792;46.236;6.040;2024-02-21T13:56:04;24.40;42.60
74359;DHT22;62792;46.236;6.040;2024-02-21T14:01:07;24.20;42.60
74359;DHT22;62792;46.236;6.040;2024-02-21T14:06:12;24.30;43.10
74359;DHT22;62792;46.236;6.040;2024-02-21T14:11:15;24.30;42.80
74359;DHT22;62792;46.236;6.040;2024-02-21T14:16:18;24.30;42.80
74359;DHT22;62792;46.236;6.040;2024-02-21T14:21:22;24.20;42.50
74359;DHT22;62792;46.236;6.040;2024-02-21T14:26:25;24.20;42.40
74359;DHT22;62792;46.236;6.040;2024-02-21T14:31:28;24.30;42.40
74359;DHT22;62792;46.236;6.040;2024-02-21T14:36:33;24.20;42.60
74359;DHT22;62792;46.236;6.040;2024-02-21T14:41:36;24.20;42.20
74359;DHT22;62792;46.236;6.040;2024-02-21T14:46:41;24.30;41.90
74359;DHT22;62792;46.236;6.040;2024-02-21T14:51:45;24.20;42.10
74359;DHT22;62792;46.236;6.040;2024-02-21T14:56:48;24.30;42.20
74359;DHT22;62792;46.236;6.040;2024-02-21T15:01:51;24.30;42.10
74359;DHT22;62792;46.236;6.040;2024-02-21T15:06:55;24.30;42.40
74359;DHT22;62792;46.236;6.040;2024-02-21T15:11:58;24.30;41.90
74359;DHT22;62792;46.236;6.040;2024-02-21T15:17:01;24.30;41.60
74359;DHT22;62792;46.236;6.040;2024-02-21T15:22:05;24.20;41.80
74359;DHT22;62792;46.236;6.040;2024-02-21T15:27:08;24.30;41.80
74359;DHT22;62792;46.236;6.040;2024-02-21T15:32:11;24.10;42.00
74359;DHT22;62792;46.236;6.040;2024-02-21T15:37:16;24.30;42.30
74359;DHT22;62792;46.236;6.040;2024-02-21T15:42:19;24.40;42.10
74359;DHT22;62792;46.236;6.040;2024-02-21T15:47:22;24.30;42.00
74359;DHT22;62792;46.236;6.040;2024-02-21T15:52:26;24.30;42.20
74359;DHT22;62792;46.236;6.040;2024-02-21T15:57:29;24.30;42.20
74359;DHT22;62792;46.236;6.040;2024-02-21T16:02:33;24.10;42.40
74359;DHT22;62792;46.236;6.040;2024-02-21T16:07:38;24.20;42.70
74359;DHT22;62792;46.236;6.040;2024-02-21T16:12:41;24.40;42.50
74359;DHT22;62792;46.236;6.040;2024-02-21T16:17:44;24.40;41.80
74359;DHT22;62792;46.236;6.040;2024-02-21T16:22:48;24.30;40.90
74359;DHT22;62792;46.236;6.040;2024-02-21T16:27:51;24.40;41.20
74359;DHT22;62792;46.236;6.040;2024-02-21T16:32:54;24.30;41.50
74359;DHT22;62792;46.236;6.040;2024-02-21T16:38:00;24.40;41.90
74359;DHT22;62792;46.236;6.040;2024-02-21T16:43:04;24.40;42.10
74359;DHT22;62792;46.236;6.040;2024-02-21T16:48:07;24.40;41.70
74359;DHT22;62792;46.236;6.040;2024-02-21T16:53:12;24.40;42.00
74359;DHT22;62792;46.236;6.040;2024-02-21T16:58:15;24.50;41.80
74359;DHT22;62792;46.236;6.040;2024-02-21T17:03:18;24.60;42.10
74359;DHT22;62792;46.236;6.040;2024-02-21T17:08:24;24.50;42.20
74359;DHT22;62792;46.236;6.040;2024-02-21T17:13:27;24.30;42.20
74359;DHT22;62792;46.236;6.040;2024-02-21T17:18:30;24.30;42.40
74359;DHT22;62792;46.236;6.040;2024-02-21T17:23:35;24.10;42.20
74359;DHT22;62792;46.236;6.040;2024-02-21T17:28:38;24.10;42.20
74359;DHT22;62792;46.236;6.040;2024-02-21T17:33:41;24.10;42.20
74359;DHT22;62792;46.236;6.040;2024-02-21T17:38:45;24.00;42.10
74359;DHT22;62792;46.236;6.040;2024-02-21T17:43:49;24.10;41.70
74359;DHT22;62792;46.236;6.040;2024-02-21T17:48:53;24.00;41.60
74359;DHT22;62792;46.236;6.040;2024-02-21T17:53:57;24.00;41.60
74359;DHT22;62792;46.236;6.040;2024-02-21T17:59:00;24.00;41.50
74359;DHT22;62792;46.236;6.040;2024-02-21T18:04:04;23.90;41.40
74359;DHT22;62792;46.236;6.040;2024-02-21T18:09:08;23.80;41.10
74359;DHT22;62792;46.236;6.040;2024-02-21T18:14:11;23.80;41.10
74359;DHT22;62792;46.236;6.040;2024-02-21T18:19:14;23.80;41.20
74359;DHT22;62792;46.236;6.040;2024-02-21T18:24:22;23.60;41.00
74359;DHT22;62792;46.236;6.040;2024-02-21T18:29:25;23.60;41.50
74359;DHT22;62792;46.236;6.040;2024-02-21T18:34:40;23.60;41.60
74359;DHT22;62792;46.236;6.040;2024-02-21T18:39:44;23.50;41.60
74359;DHT22;62792;46.236;6.040;2024-02-21T18:44:48;23.50;41.30
74359;DHT22;62792;46.236;6.040;2024-02-21T18:49:51;23.50;41.20
74359;DHT22;62792;46.236;6.040;2024-02-21T18:54:56;23.40;41.20
74359;DHT22;62792;46.236;6.040;2024-02-21T19:00:00;23.40;41.00
74359;DHT22;62792;46.236;6.040;2024-02-21T19:05:08;23.40;41.00
74359;DHT22;62792;46.236;6.040;2024-02-21T19:10:13;23.30;41.10
74359;DHT22;62792;46.236;6.040;2024-02-21T19:15:16;23.30;41.10
74359;DHT22;62792;46.236;6.040;2024-02-21T19:20:19;23.30;40.80
74359;DHT22;62792;46.236;6.040;2024-02-21T19:25:23;23.20;41.10
74359;DHT22;62792;46.236;6.040;2024-02-21T19:30:28;23.30;40.80
74359;DHT22;62792;46.236;6.040;2024-02-21T19:35:31;23.30;41.10
74359;DHT22;62792;46.236;6.040;2024-02-21T19:40:36;23.30;41.00
74359;DHT22;62792;46.236;6.040;2024-02-21T19:45:39;23.20;40.90
74359;DHT22;62792;46.236;6.040;2024-02-21T19:50:42;23.20;41.20
74359;DHT22;62792;46.236;6.040;2024-02-21T19:55:46;23.20;41.00
74359;DHT22;62792;46.236;6.040;2024-02-21T20:00:49;23.20;41.10
74359;DHT22;62792;46.236;6.040;2024-02-21T20:05:52;23.10;40.90
74359;DHT22;62792;46.236;6.040;2024-02-21T20:10:57;23.10;40.90
74359;DHT22;62792;46.236;6.040;2024-02-21T20:16:00;23.10;41.00
74359;DHT22;62792;46.236;6.040;2024-02-21T20:21:04;23.10;41.20
74359;DHT22;62792;46.236;6.040;2024-02-21T20:26:08;23.10;41.00
74359;DHT22;62792;46.236;6.040;2024-02-21T20:31:11;23.00;41.10
74359;DHT22;62792;46.236;6.040;2024-02-21T20:36:21;23.00;41.10
74359;DHT22;62792;46.236;6.040;2024-02-21T20:41:25;23.10;41.20
74359;DHT22;62792;46.236;6.040;2024-02-21T20:46:28;23.00;41.20
74359;DHT22;62792;46.236;6.040;2024-02-21T20:51:31;23.00;41.10
74359;DHT22;62792;46.236;6.040;2024-02-21T20:56:35;23.00;41.20
74359;DHT22;62792;46.236;6.040;2024-02-21T21:01:38;22.90;41.10
74359;DHT22;62792;46.236;6.040;2024-02-21T21:06:51;22.90;41.30
74359;DHT22;62792;46.236;6.040;2024-02-21T21:11:55;22.90;41.30
74359;DHT22;62792;46.236;6.040;2024-02-21T21:16:59;22.90;41.30
74359;DHT22;62792;46.236;6.040;2024-02-21T21:22:05;22.90;41.30
74359;DHT22;62792;46.236;6.040;2024-02-21T21:27:10;22.90;41.20
74359;DHT22;62792;46.236;6.040;2024-02-21T21:32:15;22.80;41.40
74359;DHT22;62792;46.236;6.040;2024-02-21T21:37:18;22.80;41.30
74359;DHT22;62792;46.236;6.040;2024-02-21T21:42:23;22.70;41.40
74359;DHT22;62792;46.236;6.040;2024-02-21T21:47:26;22.80;41.20
74359;DHT22;62792;46.236;6.040;2024-02-21T21:52:29;22.60;41.30
74359;DHT22;62792;46.236;6.040;2024-02-21T21:57:34;22.70;41.30
74359;DHT22;62792;46.236;6.040;2024-02-21T22:02:37;22.70;41.40
74359;DHT22;62792;46.236;6.040;2024-02-21T22:07:40;22.70;41.10
74359;DHT22;62792;46.236;6.040;2024-02-21T22:12:45;22.70;41.30
74359;DHT22;62792;46.236;6.040;2024-02-21T22:17:47;22.60;41.30
74359;DHT22;62792;46.236;6.040;2024-02-21T22:22:51;22.70;41.30
74359;DHT22;62792;46.236;6.040;2024-02-21T22:27:55;22.60;41.50
74359;DHT22;62792;46.236;6.040;2024-02-21T22:32:58;22.50;41.10
74359;DHT22;62792;46.236;6.040;2024-02-21T22:38:01;22.50;41.10
74359;DHT22;62792;46.236;6.040;2024-02-21T22:43:06;22.40;41.30
74359;DHT22;62792;46.236;6.040;2024-02-21T22:48:10;22.40;41.40
74359;DHT22;62792;46.236;6.040;2024-02-21T22:53:13;22.50;41.20
74359;DHT22;62792;46.236;6.040;2024-02-21T22:58:17;22.40;41.10
74359;DHT22;62792;46.236;6.040;2024-02-21T23:03:23;22.40;41.20
74359;DHT22;62792;46.236;6.040;2024-02-21T23:08:26;22.40;41.10
74359;DHT22;62792;46.236;6.040;2024-02-21T23:13:30;22.40;41.10
74359;DHT22;62792;46.236;6.040;2024-02-21T23:18:34;22.40;41.00
74359;DHT22;62792;46.236;6.040;2024-02-21T23:23:38;22.30;41.00
74359;DHT22;62792;46.236;6.040;2024-02-21T23:28:42;22.40;41.00
74359;DHT22;62792;46.236;6.040;2024-02-21T23:33:46;22.40;41.00
74359;DHT22;62792;46.236;6.040;2024-02-21T23:38:49;22.30;41.10
74359;DHT22;62792;46.236;6.040;2024-02-21T23:43:53;22.30;41.10
74359;DHT22;62792;46.236;6.040;2024-02-21T23:49:00;22.30;41.20
74359;DHT22;62792;46.236;6.040;2024-02-21T23:54:03;22.30;41.20
74359;DHT22;62792;46.236;6.040;2024-02-21T23:59:08;22.20;41.20
